Time;durP1;ratioP1;P1;durP2;ratioP2;P2;SDS_P1;SDS_P2;PMS_P1;PMS_P2;Temp;Humidity;BMP_temperature;BMP_pressure;BME280_temperature;BME280_humidity;BME280_pressure;Samples;Min_cycle;Max_cycle;Signal;HPM_P1;HPM_P2
2022/01/06 00:01:53;;;;;;;5.78;2.75;;;0.70;99.90;;;;;;5085737;28;20036;-58
2022/01/06 00:04:20;;;;;;;;;;;0.70;99.90;;;;;;5063423;28;20478;-58
2022/01/06 00:06:47;;;;;;;11.32;2.95;;;0.70;99.90;;;;;;5070945;28;20007;-59
2022/01/06 00:09:16;;;;;;;10.65;3.05;;;0.60;99.90;;;;;;5071566;28;20037;-58
2022/01/06 00:11:44;;;;;;;6.45;3.03;;;0.60;99.90;;;;;;5071288;28;20558;-58
2022/01/06 00:17:00;;;;;;;7.97;3.35;;;0.40;99.90;;;;;;5068268;28;20077;-58
2022/01/06 00:25:18;;;;;;;9.48;4.47;;;0.40;99.90;;;;;;5067444;28;20123;-59
2022/01/06 00:27:45;;;;;;;12.50;4.60;;;0.50;99.90;;;;;;5067835;28;20056;-59
2022/01/06 00:30:12;;;;;;;13.57;4.80;;;0.50;99.90;;;;;;5059567;28;20053;-59
2022/01/06 00:32:39;;;;;;;12.68;4.70;;;0.60;99.90;;;;;;5051275;28;20448;-59
2022/01/06 00:35:05;;;;;;;8.63;4.20;;;0.60;99.90;;;;;;5053526;28;20052;-59
2022/01/06 00:37:32;;;;;;;10.02;3.80;;;0.60;99.90;;;;;;5053660;28;20045;-59
2022/01/06 00:39:59;;;;;;;6.63;4.00;;;0.70;99.90;;;;;;5053771;28;20041;-59
2022/01/06 00:42:26;;;;;;;5.88;3.72;;;0.60;99.90;;;;;;5053854;28;20114;-59
2022/01/06 00:44:53;;;;;;;11.38;4.15;;;0.60;99.90;;;;;;5053854;28;20040;-59
2022/01/06 00:47:20;;;;;;;12.60;4.10;;;0.60;99.90;;;;;;5053033;28;20099;-59
2022/01/06 00:49:48;;;;;;;8.57;4.00;;;0.60;99.90;;;;;;5053716;28;20106;-59
2022/01/06 00:52:14;;;;;;;8.88;4.03;;;0.50;99.90;;;;;;5053753;28;20048;-59
2022/01/06 00:54:41;;;;;;;14.77;4.43;;;0.40;99.90;;;;;;5053581;28;20045;-59
2022/01/06 00:57:08;;;;;;;8.40;3.90;;;0.40;99.90;;;;;;5053061;28;20037;-59
2022/01/06 00:59:35;;;;;;;8.18;4.75;;;0.30;99.90;;;;;;5053454;28;20056;-59
2022/01/06 01:02:03;;;;;;;8.43;4.63;;;0.30;99.90;;;;;;5053481;28;20033;-58
2022/01/06 01:04:30;;;;;;;7.78;4.43;;;0.40;99.90;;;;;;5053530;28;20052;-59
2022/01/06 01:06:57;;;;;;;9.95;4.65;;;0.40;99.90;;;;;;5053238;28;20456;-59
2022/01/06 01:09:24;;;;;;;11.00;4.40;;;0.40;99.90;;;;;;5053221;28;20182;-59
2022/01/06 01:11:51;;;;;;;11.88;4.97;;;0.40;99.90;;;;;;5053364;28;20137;-58
2022/01/06 01:14:25;;;;;;;6.80;4.15;;;0.50;99.90;;;;;;5053304;28;20045;-59
2022/01/06 01:16:56;;;;;;;11.63;4.95;;;0.50;99.90;;;;;;5052509;28;20051;-59
2022/01/06 01:19:23;;;;;;;11.18;4.78;;;0.50;99.90;;;;;;5054555;28;20452;-59
2022/01/06 01:21:51;;;;;;;9.00;4.40;;;0.60;99.90;;;;;;5054337;28;20047;-59
2022/01/06 01:24:19;;;;;;;8.32;4.63;;;0.60;99.90;;;;;;5054437;28;20068;-59
2022/01/06 01:26:46;;;;;;;15.65;5.00;;;0.60;99.90;;;;;;5053958;28;20408;-58
2022/01/06 01:29:17;;;;;;;10.52;4.38;;;0.70;99.90;;;;;;5054473;28;20158;-59
2022/01/06 01:31:48;;;;;;;16.55;5.22;;;0.80;99.90;;;;;;5054108;28;20051;-59
2022/01/06 01:34:22;;;;;;;9.68;4.60;;;0.70;99.90;;;;;;5054190;28;20448;-59
2022/01/06 01:36:49;;;;;;;6.93;3.80;;;0.70;99.90;;;;;;5053854;28;20041;-59
2022/01/06 01:39:16;;;;;;;;;;;0.70;99.90;;;;;;5054646;28;20051;-59
2022/01/06 01:41:43;;;;;;;7.93;3.72;;;0.70;99.90;;;;;;5053812;28;19920;-59
2022/01/06 01:44:15;;;;;;;8.70;4.15;;;0.60;99.90;;;;;;5054127;28;20091;-59
2022/01/06 01:46:47;;;;;;;6.63;3.83;;;0.60;99.90;;;;;;5053493;28;20663;-59
2022/01/06 01:51:51;;;;;;;22.60;5.15;;;0.70;99.90;;;;;;5054009;28;20051;-59
2022/01/06 01:54:18;;;;;;;9.18;4.45;;;0.60;99.90;;;;;;5053977;28;20048;-59
2022/01/06 01:56:45;;;;;;;9.23;4.53;;;0.60;99.90;;;;;;5053409;28;20468;-59
2022/01/06 01:59:13;;;;;;;9.05;4.72;;;0.60;99.90;;;;;;5053694;28;20045;-59
2022/01/06 02:01:42;;;;;;;8.75;4.90;;;0.60;99.90;;;;;;5053765;28;20116;-59
2022/01/06 02:04:09;;;;;;;11.75;4.50;;;0.60;99.90;;;;;;5053457;28;20036;-59
2022/01/06 02:06:36;;;;;;;12.65;5.15;;;0.60;99.90;;;;;;5053285;28;20053;-59
2022/01/06 02:09:03;;;;;;;10.82;4.65;;;0.60;99.90;;;;;;5053627;28;20048;-59
2022/01/06 02:11:30;;;;;;;6.82;4.38;;;0.60;99.90;;;;;;5053488;28;20049;-59
2022/01/06 02:13:59;;;;;;;6.70;3.17;;;0.60;99.90;;;;;;5053699;28;20676;-59
2022/01/06 02:16:26;;;;;;;7.38;3.50;;;0.60;99.90;;;;;;5053086;28;20044;-59
2022/01/06 02:18:54;;;;;;;6.53;2.75;;;0.60;99.90;;;;;;5053144;28;20041;-59
2022/01/06 02:21:21;;;;;;;5.03;2.42;;;0.70;99.90;;;;;;5053349;28;20448;-59
2022/01/06 02:23:48;;;;;;;5.47;2.25;;;0.80;99.90;;;;;;5053053;28;20128;-59
2022/01/06 02:26:15;;;;;;;5.22;2.58;;;0.80;99.90;;;;;;5052129;28;20595;-59
2022/01/06 02:28:43;;;;;;;5.32;2.50;;;0.80;99.90;;;;;;5053132;28;20041;-59
2022/01/06 02:31:10;;;;;;;6.32;2.40;;;0.80;99.90;;;;;;5053111;28;20444;-59
2022/01/06 02:33:37;;;;;;;4.47;2.22;;;0.80;99.90;;;;;;5053201;28;20045;-59
2022/01/06 02:36:04;;;;;;;;;;;0.80;99.90;;;;;;5053155;28;20086;-59
2022/01/06 02:38:31;;;;;;;9.35;2.92;;;0.80;99.90;;;;;;5053045;28;20381;-59
2022/01/06 02:40:58;;;;;;;9.10;2.97;;;0.80;99.90;;;;;;5052998;28;20111;-59
2022/01/06 02:43:25;;;;;;;4.57;2.78;;;0.80;99.90;;;;;;5052796;28;20136;-59
2022/01/06 02:45:52;;;;;;;7.13;3.25;;;0.80;99.90;;;;;;5052641;28;20546;-59
2022/01/06 02:48:19;;;;;;;6.82;3.35;;;0.70;99.90;;;;;;5052826;28;20048;-59
2022/01/06 02:50:48;;;;;;;10.43;3.30;;;0.80;99.90;;;;;;5052887;28;20445;-59
2022/01/06 02:53:17;;;;;;;5.07;3.10;;;0.80;99.90;;;;;;5052538;28;20045;-59
2022/01/06 02:55:50;;;;;;;6.13;3.35;;;0.80;99.90;;;;;;5051732;28;20119;-59
2022/01/06 02:58:37;;;;;;;6.57;3.05;;;0.80;99.90;;;;;;5052717;28;20041;-59
2022/01/06 03:01:04;;;;;;;5.05;3.00;;;0.70;99.90;;;;;;5052613;28;20513;-59
2022/01/06 03:03:31;;;;;;;6.47;3.28;;;0.80;99.90;;;;;;5052552;28;20046;-59
2022/01/06 03:05:58;;;;;;;9.07;2.70;;;0.70;99.90;;;;;;5051971;28;20106;-59
2022/01/06 03:08:27;;;;;;;8.80;3.13;;;0.70;99.90;;;;;;5052565;28;20063;-59
2022/01/06 03:10:56;;;;;;;8.10;3.63;;;0.80;99.90;;;;;;5052339;28;20041;-59
2022/01/06 03:13:22;;;;;;;7.68;3.38;;;0.70;99.90;;;;;;5052402;28;20048;-59
2022/01/06 03:15:49;;;;;;;6.93;2.55;;;0.80;99.90;;;;;;5051881;28;20049;-59
2022/01/06 03:18:16;;;;;;;6.28;3.53;;;0.80;99.90;;;;;;5051934;28;20048;-59
2022/01/06 03:20:43;;;;;;;4.53;3.28;;;0.80;99.90;;;;;;5052328;28;20087;-59
2022/01/06 03:23:10;;;;;;;6.80;3.25;;;0.80;99.90;;;;;;5051038;28;20386;-59
2022/01/06 03:25:37;;;;;;;7.45;3.60;;;0.80;99.90;;;;;;5051762;28;20106;-59
2022/01/06 03:28:04;;;;;;;7.07;3.30;;;0.80;99.90;;;;;;5052101;28;20053;-59
2022/01/06 03:30:31;;;;;;;6.85;3.47;;;0.80;99.90;;;;;;5051885;28;20477;-59
2022/01/06 03:32:57;;;;;;;6.13;2.92;;;0.90;99.90;;;;;;5052070;28;20059;-59
2022/01/06 03:35:25;;;;;;;9.32;4.38;;;0.90;99.90;;;;;;5051634;28;20052;-59
2022/01/06 03:37:52;;;;;;;7.97;3.80;;;0.90;99.90;;;;;;5051668;28;20047;-59
2022/01/06 03:40:20;;;;;;;8.30;4.15;;;0.90;99.90;;;;;;5051922;28;20532;-59
2022/01/06 03:42:47;;;;;;;7.13;3.97;;;0.90;99.90;;;;;;5051919;28;20041;-59
2022/01/06 03:45:17;;;;;;;12.70;4.50;;;0.90;99.90;;;;;;5050329;28;20040;-59
2022/01/06 03:47:44;;;;;;;9.85;4.03;;;0.80;99.90;;;;;;5051595;28;20044;-58
2022/01/06 03:50:13;;;;;;;;;;;0.80;99.90;;;;;;5052245;28;20045;-59
2022/01/06 03:52:40;;;;;;;9.57;4.45;;;0.70;99.90;;;;;;5052016;28;20344;-59
2022/01/06 03:55:09;;;;;;;8.32;4.50;;;0.80;99.90;;;;;;5051544;28;20079;-59
2022/01/06 03:57:36;;;;;;;11.60;4.38;;;0.70;99.90;;;;;;5051350;28;20048;-59
2022/01/06 04:00:09;;;;;;;11.25;4.90;;;0.70;99.90;;;;;;5051374;28;20040;-59
2022/01/06 04:02:40;;;;;;;9.80;4.57;;;0.70;99.90;;;;;;5051715;28;20139;-59
2022/01/06 04:05:08;;;;;;;11.50;4.85;;;0.70;99.90;;;;;;5051389;28;20045;-59
2022/01/06 04:07:35;;;;;;;11.00;5.10;;;0.60;99.90;;;;;;5050524;28;20053;-59
2022/01/06 04:10:04;;;;;;;10.15;5.05;;;0.70;99.90;;;;;;5051633;28;20170;-59
2022/01/06 04:12:34;;;;;;;10.85;4.78;;;0.60;99.90;;;;;;5051110;28;20044;-59
2022/01/06 04:15:04;;;;;;;9.77;5.05;;;0.70;99.90;;;;;;5051452;28;20045;-59
2022/01/06 04:17:31;;;;;;;13.82;5.15;;;0.70;99.90;;;;;;5051053;28;20044;-59
2022/01/06 04:19:57;;;;;;;10.32;5.90;;;0.70;99.90;;;;;;5051451;28;20041;-59
2022/01/06 04:22:24;;;;;;;11.27;5.22;;;0.70;99.90;;;;;;5051243;28;20497;-59
2022/01/06 04:24:51;;;;;;;11.45;5.50;;;0.80;99.90;;;;;;5051402;28;20048;-59
2022/01/06 04:27:18;;;;;;;12.55;4.75;;;0.70;99.90;;;;;;5051077;28;20048;-59
2022/01/06 04:29:45;;;;;;;9.63;5.88;;;0.70;99.90;;;;;;5051453;28;20048;-59
2022/01/06 04:32:12;;;;;;;11.10;6.35;;;0.70;99.90;;;;;;5051140;28;20049;-59
2022/01/06 04:34:38;;;;;;;10.70;5.07;;;0.80;99.90;;;;;;5051378;28;20055;-59
2022/01/06 04:37:06;;;;;;;12.38;4.80;;;0.90;99.90;;;;;;5050782;28;20037;-59
2022/01/06 04:39:33;;;;;;;10.90;5.30;;;0.90;99.90;;;;;;5051178;28;20041;-59
2022/01/06 04:42:00;;;;;;;10.07;4.72;;;0.90;99.90;;;;;;5051000;28;20579;-59
2022/01/06 04:44:27;;;;;;;9.95;4.72;;;0.90;99.90;;;;;;5051111;28;20047;-59
2022/01/06 04:46:53;;;;;;;6.18;3.63;;;0.90;99.90;;;;;;5050768;28;20490;-59
2022/01/06 04:49:22;;;;;;;4.05;2.50;;;0.90;99.90;;;;;;5051175;28;20561;-59
2022/01/06 04:51:49;;;;;;;6.30;3.92;;;0.90;99.90;;;;;;5051114;28;20111;-59
2022/01/06 04:54:16;;;;;;;;;;;0.90;99.90;;;;;;5050133;28;20433;-59
2022/01/06 04:56:43;;;;;;;8.80;4.15;;;0.90;99.90;;;;;;5050329;28;20045;-59
2022/01/06 04:59:09;;;;;;;7.97;3.30;;;0.90;99.90;;;;;;5051132;28;20048;-59
2022/01/06 05:01:37;;;;;;;10.80;5.72;;;0.90;99.90;;;;;;5051161;28;20082;-59
2022/01/06 05:04:05;;;;;;;7.47;4.65;;;0.90;99.90;;;;;;5051022;28;20045;-59
2022/01/06 05:06:32;;;;;;;9.18;4.53;;;0.90;99.90;;;;;;5050389;28;20405;-59
2022/01/06 05:08:59;;;;;;;6.18;3.90;;;0.90;99.90;;;;;;5050846;28;20045;-59
2022/01/06 05:11:25;;;;;;;8.63;4.47;;;0.80;99.90;;;;;;5050898;28;20041;-59
2022/01/06 05:13:52;;;;;;;12.60;4.20;;;0.70;99.90;;;;;;5050982;28;20048;-59
2022/01/06 05:16:19;;;;;;;7.05;4.00;;;0.70;99.90;;;;;;5050397;28;20074;-59
2022/01/06 05:18:46;;;;;;;8.90;4.15;;;0.70;99.90;;;;;;5114634;22;20055;-54
2022/01/06 05:22:00;;;;;;;8.65;4.15;;;0.70;99.90;;;;;;5114351;28;20047;-55
2022/01/06 05:24:27;;;;;;;7.25;3.75;;;0.80;99.90;;;;;;5115229;28;20100;-55
2022/01/06 05:26:56;;;;;;;10.07;4.10;;;0.80;99.90;;;;;;5113440;28;20031;-52
2022/01/06 05:29:24;;;;;;;6.28;4.10;;;0.80;99.90;;;;;;5104271;28;20044;-53
2022/01/06 05:31:50;;;;;;;7.10;4.07;;;0.80;99.90;;;;;;5094620;28;20040;-55
2022/01/06 05:34:17;;;;;;;7.40;4.28;;;0.70;99.90;;;;;;5094532;28;20044;-53
2022/01/06 05:36:44;;;;;;;6.88;3.97;;;0.80;99.90;;;;;;5093922;28;20085;-51
2022/01/06 05:39:11;;;;;;;4.65;3.25;;;0.80;99.90;;;;;;5094457;28;20036;-51
2022/01/06 05:41:38;;;;;;;7.28;4.57;;;0.80;99.90;;;;;;5094316;28;20094;-52
2022/01/06 05:44:05;;;;;;;9.50;4.05;;;0.80;99.90;;;;;;5094214;28;20102;-51
2022/01/06 05:46:32;;;;;;;6.18;4.22;;;0.80;99.90;;;;;;5093966;28;20769;-52
2022/01/06 05:48:59;;;;;;;8.77;4.60;;;0.80;99.90;;;;;;5093977;28;20068;-55
2022/01/06 05:51:26;;;;;;;10.25;4.55;;;0.80;99.90;;;;;;5094260;28;20086;-53
2022/01/06 05:53:53;;;;;;;11.85;4.47;;;0.80;99.90;;;;;;5094158;28;20077;-51
2022/01/06 05:56:21;;;;;;;6.75;4.10;;;0.80;99.90;;;;;;5093459;28;20587;-55
2022/01/06 05:58:48;;;;;;;5.75;4.05;;;0.90;99.90;;;;;;5093913;28;20032;-53
2022/01/06 06:01:15;;;;;;;8.43;4.78;;;0.90;99.90;;;;;;5104084;28;20115;-56
2022/01/06 06:03:42;;;;;;;7.60;4.65;;;0.90;99.90;;;;;;5096063;28;20632;-53
2022/01/06 06:06:09;;;;;;;4.88;3.47;;;0.90;99.90;;;;;;5113973;28;20046;-53
2022/01/06 06:08:36;;;;;;;14.20;5.05;;;0.90;99.90;;;;;;5114323;28;20044;-52
2022/01/06 06:11:03;;;;;;;9.32;4.50;;;0.80;99.90;;;;;;5113767;28;20156;-51
2022/01/06 06:13:30;;;;;;;7.07;4.07;;;0.80;99.90;;;;;;5114177;28;20089;-52
2022/01/06 06:15:57;;;;;;;6.45;4.30;;;0.80;99.90;;;;;;5113827;28;20413;-54
2022/01/06 06:18:24;;;;;;;6.07;4.50;;;0.90;99.90;;;;;;5113736;28;20047;-52
2022/01/06 06:20:51;;;;;;;10.02;5.78;;;0.70;99.90;;;;;;5113826;28;20381;-53
2022/01/06 06:23:17;;;;;;;8.18;4.93;;;0.70;99.90;;;;;;5114062;28;20110;-53
2022/01/06 06:25:44;;;;;;;7.68;4.68;;;0.80;99.90;;;;;;5113361;28;20063;-52
2022/01/06 06:28:11;;;;;;;9.75;5.43;;;0.80;99.90;;;;;;5113791;28;20054;-53
2022/01/06 06:30:38;;;;;;;7.15;5.28;;;0.80;99.90;;;;;;5113022;28;20122;-54
2022/01/06 06:33:05;;;;;;;8.77;5.22;;;0.80;99.90;;;;;;5113652;28;20100;-53
2022/01/06 06:35:32;;;;;;;11.57;5.60;;;0.80;99.90;;;;;;5113413;28;20040;-51
2022/01/06 06:37:59;;;;;;;10.80;5.30;;;0.80;99.90;;;;;;5113680;28;20044;-51
2022/01/06 06:40:25;;;;;;;11.68;6.07;;;0.80;99.90;;;;;;5113548;28;20553;-54
2022/01/06 06:42:53;;;;;;;15.50;8.13;;;0.80;99.90;;;;;;5113594;28;20089;-53
2022/01/06 06:45:21;;;;;;;17.45;7.82;;;0.80;99.90;;;;;;5113003;28;20496;-54
2022/01/06 06:47:49;;;;;;;21.15;9.68;;;0.80;99.90;;;;;;5113427;28;20411;-52
2022/01/06 06:50:17;;;;;;;17.67;9.63;;;0.80;99.90;;;;;;5113356;28;20051;-56
2022/01/06 06:52:44;;;;;;;;;;;0.80;99.90;;;;;;5113529;28;20046;-52
2022/01/06 06:55:12;;;;;;;10.05;6.78;;;0.80;99.90;;;;;;5113013;28;19923;-54
2022/01/06 06:57:40;;;;;;;11.20;6.07;;;0.90;99.90;;;;;;5113434;28;20043;-51
2022/01/06 07:00:09;;;;;;;;;;;0.90;99.90;;;;;;5113837;28;20481;-52
2022/01/06 07:02:36;;;;;;;9.90;5.88;;;0.90;99.90;;;;;;5113161;28;19923;-53
2022/01/06 07:05:03;;;;;;;;;;;0.90;99.90;;;;;;5113404;28;20039;-54
2022/01/06 07:07:31;;;;;;;10.02;6.50;;;0.90;99.90;;;;;;5094501;28;19919;-53
2022/01/06 07:09:58;;;;;;;13.48;6.68;;;0.90;99.90;;;;;;5112941;28;20104;-54
2022/01/06 07:12:25;;;;;;;11.95;6.43;;;0.90;99.90;;;;;;5112875;28;20040;-51
2022/01/06 07:14:52;;;;;;;10.65;5.53;;;1.00;99.90;;;;;;5112951;28;20056;-54
2022/01/06 07:17:19;;;;;;;11.50;6.60;;;1.00;99.90;;;;;;5112435;28;20054;-51
2022/01/06 07:19:46;;;;;;;10.45;6.10;;;1.00;99.90;;;;;;5112807;28;20101;-53
2022/01/06 07:22:12;;;;;;;6.90;4.63;;;1.00;99.90;;;;;;5112640;28;20462;-53
2022/01/06 07:24:39;;;;;;;8.30;4.90;;;1.00;99.90;;;;;;5112759;28;20092;-54
2022/01/06 07:27:07;;;;;;;8.30;5.38;;;1.10;99.90;;;;;;5112041;28;20035;-51
2022/01/06 07:29:34;;;;;;;12.00;6.35;;;1.10;99.90;;;;;;5112684;28;20039;-52
2022/01/06 07:32:01;;;;;;;6.00;4.22;;;1.10;99.90;;;;;;5111994;28;20040;-52
2022/01/06 07:34:28;;;;;;;10.75;4.63;;;1.10;99.90;;;;;;5112567;28;20040;-53
2022/01/06 07:36:54;;;;;;;9.70;5.18;;;1.10;99.90;;;;;;5111598;28;20523;-51
2022/01/06 07:39:21;;;;;;;12.50;5.65;;;1.10;99.90;;;;;;5112531;28;20089;-53
2022/01/06 07:41:48;;;;;;;9.30;5.05;;;1.10;99.90;;;;;;5111822;28;20044;-55
2022/01/06 07:44:20;;;;;;;7.40;4.35;;;1.10;99.90;;;;;;5094122;28;20039;-54
2022/01/06 07:46:47;;;;;;;10.77;5.22;;;1.10;99.90;;;;;;5110755;28;20126;-52
2022/01/06 07:49:14;;;;;;;;;;;1.20;99.90;;;;;;5109517;28;20066;-55
2022/01/06 07:51:41;;;;;;;8.73;4.75;;;1.20;99.90;;;;;;5111371;28;19919;-53
2022/01/06 07:54:08;;;;;;;11.27;4.35;;;1.10;99.90;;;;;;5111845;28;20043;-52
2022/01/06 07:56:35;;;;;;;7.47;4.28;;;1.10;99.90;;;;;;5107968;28;20118;-54
2022/01/06 07:59:02;;;;;;;7.45;4.10;;;1.10;99.90;;;;;;5111800;28;20039;-53
2022/01/06 08:01:29;;;;;;;9.02;4.50;;;1.20;99.90;;;;;;5111635;28;20039;-53
2022/01/06 08:03:56;;;;;;;11.43;4.32;;;1.20;99.90;;;;;;5108686;28;20126;-53
2022/01/06 08:06:23;;;;;;;11.27;4.70;;;1.30;99.90;;;;;;5110746;28;20043;-56
2022/01/06 08:08:50;;;;;;;7.15;4.10;;;1.30;99.90;;;;;;5111498;28;20036;-51
2022/01/06 08:11:17;;;;;;;7.70;4.20;;;1.30;99.90;;;;;;5108846;28;20044;-53
2022/01/06 08:13:48;;;;;;;7.15;4.22;;;1.30;99.90;;;;;;5111867;28;20052;-54
2022/01/06 08:16:15;;;;;;;6.72;4.32;;;1.30;99.90;;;;;;5111522;28;20059;-53
2022/01/06 08:18:42;;;;;;;7.05;3.67;;;1.30;99.90;;;;;;5111823;28;20411;-52
2022/01/06 08:21:09;;;;;;;10.05;4.60;;;1.20;99.90;;;;;;5111988;28;20483;-51
2022/01/06 08:23:36;;;;;;;6.82;4.00;;;1.30;99.90;;;;;;5111955;28;20118;-51
2022/01/06 08:26:03;;;;;;;7.45;3.92;;;1.40;99.90;;;;;;5111543;28;20488;-51
2022/01/06 08:28:30;;;;;;;10.27;5.63;;;1.50;99.90;;;;;;5111457;28;20082;-55
2022/01/06 08:30:57;;;;;;;11.48;5.90;;;1.50;99.90;;;;;;5111876;28;20043;-53
2022/01/06 08:33:24;;;;;;;6.20;4.28;;;1.60;99.90;;;;;;5111971;28;20035;-53
2022/01/06 08:35:51;;;;;;;9.82;4.63;;;1.50;99.90;;;;;;5111453;28;20089;-55
2022/01/06 08:38:18;;;;;;;8.52;3.60;;;1.60;99.90;;;;;;5111462;28;20075;-54
2022/01/06 08:40:45;;;;;;;7.03;3.92;;;1.60;99.90;;;;;;5111860;28;20048;-54
2022/01/06 08:43:12;;;;;;;6.35;2.97;;;1.70;99.90;;;;;;5111680;28;20047;-57
2022/01/06 08:45:39;;;;;;;9.15;3.60;;;1.60;99.90;;;;;;5111179;28;20040;-53
2022/01/06 08:48:06;;;;;;;;;;;1.70;99.90;;;;;;5112315;28;20541;-53
2022/01/06 08:50:34;;;;;;;6.85;3.30;;;1.60;99.90;;;;;;5111682;28;19920;-53
2022/01/06 08:53:01;;;;;;;13.25;6.10;;;1.60;99.90;;;;;;5112982;28;20040;-55
2022/01/06 08:55:28;;;;;;;9.80;4.85;;;1.60;99.90;;;;;;5115235;28;20039;-52
2022/01/06 08:57:57;;;;;;;9.82;4.65;;;1.70;99.90;;;;;;5115446;28;20075;-53
2022/01/06 09:00:24;;;;;;;11.27;6.15;;;1.60;99.90;;;;;;5115125;28;20047;-56
2022/01/06 09:02:50;;;;;;;12.70;6.05;;;1.50;99.90;;;;;;5115547;28;20043;-52
2022/01/06 09:05:17;;;;;;;16.92;7.90;;;1.50;99.90;;;;;;5115006;28;20096;-52
2022/01/06 09:07:44;;;;;;;11.93;5.20;;;1.60;99.90;;;;;;5115385;28;20048;-51
2022/01/06 09:10:11;;;;;;;7.90;3.90;;;1.60;99.90;;;;;;5115326;28;20449;-54
2022/01/06 09:12:39;;;;;;;6.88;3.88;;;1.70;99.90;;;;;;5115117;28;20462;-54
2022/01/06 09:15:07;;;;;;;12.00;4.95;;;1.80;99.90;;;;;;5115156;28;20039;-54
2022/01/06 09:17:36;;;;;;;7.28;3.97;;;1.90;99.90;;;;;;5114476;28;20089;-53
2022/01/06 09:20:04;;;;;;;6.40;3.75;;;1.80;99.90;;;;;;5114696;28;20069;-55
2022/01/06 09:22:37;;;;;;;10.43;4.30;;;1.80;99.90;;;;;;5112406;28;20459;-56
2022/01/06 09:25:04;;;;;;;10.02;5.10;;;1.90;99.90;;;;;;5114300;28;20124;-53
2022/01/06 09:27:31;;;;;;;9.10;4.03;;;1.90;99.90;;;;;;5111683;28;20442;-56
2022/01/06 09:29:59;;;;;;;11.40;4.15;;;1.90;99.90;;;;;;5115019;28;20506;-51
2022/01/06 09:32:26;;;;;;;7.82;4.22;;;2.00;99.90;;;;;;5114937;28;20039;-56
2022/01/06 09:34:53;;;;;;;10.95;5.50;;;2.00;99.90;;;;;;5114858;28;20518;-55
2022/01/06 09:37:20;;;;;;;6.32;3.75;;;2.00;99.90;;;;;;5114322;28;20545;-56
2022/01/06 09:39:47;;;;;;;11.88;6.88;;;2.00;99.90;;;;;;5114592;28;20515;-51
2022/01/06 09:42:16;;;;;;;15.93;8.55;;;1.90;99.90;;;;;;5114739;28;20035;-51
2022/01/06 09:44:43;;;;;;;14.57;7.32;;;1.70;99.90;;;;;;5114848;28;20046;-52
2022/01/06 09:47:10;;;;;;;14.05;7.30;;;1.70;99.90;;;;;;5114208;28;20047;-53
2022/01/06 09:49:57;;;;;;;14.40;7.43;;;1.60;99.90;;;;;;5114597;28;20039;-52
2022/01/06 09:52:24;;;;;;;17.60;8.30;;;1.60;99.90;;;;;;5114331;28;20042;-56
2022/01/06 09:54:51;;;;;;;14.60;7.90;;;1.50;99.90;;;;;;5114029;28;20092;-55
2022/01/06 09:57:18;;;;;;;15.32;7.68;;;1.40;99.90;;;;;;5113544;28;20032;-54
2022/01/06 09:59:45;;;;;;;17.95;7.32;;;1.50;99.90;;;;;;5111638;28;20407;-53
2022/01/06 10:02:16;;;;;;;17.98;8.00;;;1.50;99.90;;;;;;5112480;28;20039;-55
2022/01/06 10:04:44;;;;;;;21.33;8.52;;;1.50;99.90;;;;;;5111763;28;20078;-56
2022/01/06 10:07:15;;;;;;;16.75;8.27;;;1.70;99.90;;;;;;5110597;28;20042;-56
2022/01/06 10:09:42;;;;;;;15.88;7.35;;;1.80;99.90;;;;;;5114026;28;20483;-53
2022/01/06 10:12:13;;;;;;;12.25;7.05;;;1.80;99.90;;;;;;5114083;28;20122;-56
2022/01/06 10:14:44;;;;;;;16.92;8.05;;;1.90;99.90;;;;;;5095730;28;20435;-55
2022/01/06 10:17:14;;;;;;;14.00;7.63;;;1.90;99.90;;;;;;5113387;28;20508;-56
2022/01/06 10:19:43;;;;;;;13.85;6.53;;;1.90;99.90;;;;;;5113593;28;20032;-56
2022/01/06 10:22:20;;;;;;;14.73;7.53;;;2.00;99.90;;;;;;5113895;28;20082;-53
2022/01/06 10:24:49;;;;;;;10.95;6.72;;;2.10;99.90;;;;;;5113937;28;20051;-54
2022/01/06 10:27:19;;;;;;;15.30;6.82;;;2.10;99.90;;;;;;5113367;28;20040;-54
2022/01/06 10:29:49;;;;;;;15.43;7.38;;;2.10;99.90;;;;;;5113667;28;20042;-52
2022/01/06 10:32:19;;;;;;;19.33;6.70;;;2.10;99.90;;;;;;5113256;28;20495;-52
2022/01/06 10:34:56;;;;;;;12.80;7.03;;;2.20;99.90;;;;;;5113668;28;20048;-54
2022/01/06 10:37:25;;;;;;;11.68;6.93;;;2.20;99.90;;;;;;5113351;28;20039;-52
2022/01/06 10:40:04;;;;;;;19.65;7.47;;;2.20;99.90;;;;;;5113451;28;20047;-52
2022/01/06 10:42:33;;;;;;;9.35;5.70;;;2.20;99.90;;;;;;5113588;28;20490;-52
2022/01/06 10:45:06;;;;;;;13.23;6.47;;;2.20;99.90;;;;;;5113257;28;20557;-55
2022/01/06 10:47:37;;;;;;;16.10;6.60;;;2.20;99.90;;;;;;5113053;28;20063;-54
2022/01/06 10:50:10;;;;;;;12.25;6.10;;;2.30;99.90;;;;;;5113142;28;20525;-53
2022/01/06 10:52:39;;;;;;;8.85;5.22;;;2.20;99.90;;;;;;5113394;28;20113;-53
2022/01/06 10:55:30;;;;;;;16.02;6.03;;;2.30;99.90;;;;;;5113037;28;20040;-52
2022/01/06 10:58:07;;;;;;;17.35;6.90;;;2.30;99.90;;;;;;5113136;28;20043;-57
2022/01/06 11:00:40;;;;;;;17.90;6.28;;;2.30;99.90;;;;;;5113271;28;20039;-51
2022/01/06 11:03:22;;;;;;;22.45;9.70;;;2.20;99.90;;;;;;5113062;28;20044;-55
2022/01/06 11:05:54;;;;;;;24.00;12.43;;;2.10;99.90;;;;;;5112617;28;20393;-53
2022/01/06 11:08:32;;;;;;;20.70;10.05;;;2.10;99.90;;;;;;5113094;28;20047;-52
2022/01/06 11:13:41;;;;;;;22.73;7.63;;;2.20;99.90;;;;;;5112891;28;20504;-53
2022/01/06 11:16:12;;;;;;;19.92;8.68;;;2.30;99.90;;;;;;5112383;28;20075;-52
2022/01/06 11:18:41;;;;;;;15.30;9.02;;;2.30;99.90;;;;;;5112489;28;20455;-53
2022/01/06 11:21:13;;;;;;;18.77;8.25;;;2.40;99.90;;;;;;5112845;28;20052;-55
2022/01/06 11:23:40;;;;;;;24.13;11.57;;;2.30;99.90;;;;;;5112773;28;20047;-54
2022/01/06 11:26:12;;;;;;;27.85;10.55;;;2.30;99.90;;;;;;5112243;28;20526;-52
2022/01/06 11:28:42;;;;;;;18.88;8.50;;;2.20;99.90;;;;;;5109711;28;20059;-52
2022/01/06 11:31:21;;;;;;;14.77;8.07;;;2.30;99.90;;;;;;5150560;22;20460;-58
2022/01/06 11:33:51;;;;;;;11.07;6.30;;;2.30;99.90;;;;;;5139298;27;20053;-57
2022/01/06 11:36:19;;;;;;;11.77;5.60;;;2.40;99.90;;;;;;5132716;27;20045;-57
2022/01/06 11:38:48;;;;;;;12.02;5.80;;;2.50;99.90;;;;;;5133126;27;20099;-58
2022/01/06 11:41:16;;;;;;;13.32;6.22;;;2.60;99.90;;;;;;5114959;27;20040;-57
2022/01/06 11:43:45;;;;;;;13.40;6.40;;;2.60;99.90;;;;;;5112503;28;20036;-58
2022/01/06 11:46:13;;;;;;;12.55;6.55;;;2.60;99.90;;;;;;5111736;27;20043;-58
2022/01/06 11:48:52;;;;;;;14.40;7.10;;;2.60;99.90;;;;;;5112256;28;20075;-58
2022/01/06 11:51:25;;;;;;;16.38;7.07;;;2.60;99.90;;;;;;5112387;28;20050;-58
2022/01/06 11:53:53;;;;;;;13.65;6.07;;;2.60;99.90;;;;;;5112302;28;20426;-58
2022/01/06 11:56:23;;;;;;;12.40;6.63;;;2.50;99.90;;;;;;5111470;28;20047;-58
2022/01/06 11:59:01;;;;;;;16.20;6.57;;;2.50;99.90;;;;;;5112219;28;20479;-58
2022/01/06 12:01:43;;;;;;;13.00;6.60;;;2.40;99.90;;;;;;5111957;28;20058;-58
2022/01/06 12:04:20;;;;;;;11.55;6.20;;;2.40;99.90;;;;;;5112255;28;20139;-57
2022/01/06 12:06:48;;;;;;;15.07;7.10;;;2.40;99.90;;;;;;5111508;28;20114;-58
2022/01/06 12:09:16;;;;;;;12.30;6.50;;;2.40;99.90;;;;;;5111913;28;20047;-58
2022/01/06 12:11:43;;;;;;;12.07;6.28;;;2.30;99.90;;;;;;5111851;28;20044;-58
2022/01/06 12:14:11;;;;;;;14.05;6.05;;;2.30;99.90;;;;;;5112499;28;20048;-58
2022/01/06 12:16:41;;;;;;;12.30;6.60;;;2.30;99.90;;;;;;5111537;28;20515;-58
2022/01/06 12:19:17;;;;;;;11.98;6.35;;;2.40;99.90;;;;;;5111765;28;20040;-57
2022/01/06 12:21:45;;;;;;;12.85;6.40;;;2.40;99.90;;;;;;5111906;28;20047;-58
2022/01/06 12:24:12;;;;;;;13.25;6.30;;;2.40;99.90;;;;;;5111635;28;20438;-58
2022/01/06 12:26:40;;;;;;;11.00;6.65;;;2.50;99.90;;;;;;5111520;28;20063;-58
2022/01/06 12:29:19;;;;;;;14.57;6.80;;;2.40;99.90;;;;;;5115181;28;20063;-58
2022/01/06 12:31:47;;;;;;;13.82;6.45;;;2.30;99.90;;;;;;5115896;28;20167;-58
2022/01/06 12:34:15;;;;;;;13.15;7.35;;;2.30;99.90;;;;;;5115833;28;20071;-58
2022/01/06 12:36:45;;;;;;;14.63;7.35;;;2.30;99.90;;;;;;5115611;28;20522;-58
2022/01/06 12:39:13;;;;;;;15.02;7.20;;;2.30;99.90;;;;;;5115832;28;20083;-57
2022/01/06 12:41:40;;;;;;;13.88;6.75;;;2.50;99.90;;;;;;5115853;28;20044;-57
2022/01/06 12:44:09;;;;;;;16.38;6.93;;;2.60;99.90;;;;;;5115922;28;20044;-58
2022/01/06 12:46:38;;;;;;;10.80;6.88;;;2.60;99.90;;;;;;5115043;28;20101;-58
2022/01/06 12:49:09;;;;;;;11.90;6.38;;;2.70;99.90;;;;;;5115732;28;20047;-58
2022/01/06 12:51:41;;;;;;;13.30;6.93;;;2.70;99.90;;;;;;5115860;28;20043;-58
2022/01/06 12:54:15;;;;;;;12.50;6.10;;;2.80;99.90;;;;;;5115651;28;20388;-58
2022/01/06 12:56:51;;;;;;;16.80;6.93;;;2.80;99.90;;;;;;5115184;28;20461;-58
2022/01/06 12:59:27;;;;;;;10.48;6.75;;;2.80;99.90;;;;;;5115272;28;20484;-58
2022/01/06 13:01:56;;;;;;;11.82;6.65;;;2.80;99.90;;;;;;5115536;28;20484;-58
2022/01/06 13:04:27;;;;;;;13.00;6.90;;;2.90;99.90;;;;;;5115723;28;20036;-58
2022/01/06 13:06:58;;;;;;;11.35;6.43;;;2.90;99.90;;;;;;5115344;28;20043;-58
2022/01/06 13:09:27;;;;;;;11.85;5.82;;;3.00;99.90;;;;;;5115192;28;20093;-58
2022/01/06 13:12:00;;;;;;;10.70;5.60;;;3.00;99.90;;;;;;5115062;28;20047;-58
2022/01/06 13:14:42;;;;;;;11.57;5.60;;;2.90;99.90;;;;;;5115200;28;20089;-58
2022/01/06 13:17:18;;;;;;;9.43;6.03;;;2.90;99.90;;;;;;5114890;28;20039;-58